Time;durP1;ratioP1;P1;durP2;ratioP2;P2;SDS_P1;SDS_P2;PMS_P1;PMS_P2;Temp;Humidity;BMP_temperature;BMP_pressure;BME280_temperature;BME280_humidity;BME280_pressure;Samples;Min_cycle;Max_cycle;Signal;HPM_P1;HPM_P2
2022/10/26 00:02:07;;;;;;;15.25;8.15;;;;;;;10.48;95.57;101340.19;5062683;28;20045;-77
2022/10/26 00:04:32;;;;;;;16.90;8.00;;;;;;;10.47;95.47;101333.22;5062860;28;20092;-76
2022/10/26 00:06:58;;;;;;;16.02;8.60;;;;;;;10.50;95.34;101333.31;5061567;28;20017;-76
2022/10/26 00:09:23;;;;;;;21.00;8.80;;;;;;;10.52;95.49;101321.19;5062692;28;20029;-76
2022/10/26 00:11:48;;;;;;;17.60;8.85;;;;;;;10.53;95.20;101322.06;5062703;28;20203;-77
2022/10/26 00:14:13;;;;;;;17.55;8.45;;;;;;;10.53;95.52;101317.78;5062636;28;20036;-77
2022/10/26 00:16:39;;;;;;;18.95;8.35;;;;;;;10.55;95.67;101310.88;5062570;28;20174;-69
2022/10/26 00:19:04;;;;;;;18.02;8.60;;;;;;;10.58;95.79;101307.47;5062937;28;20335;-68
2022/10/26 00:21:29;;;;;;;16.95;8.00;;;;;;;10.59;95.91;101301.44;5061461;28;20086;-69
2022/10/26 00:23:55;;;;;;;17.85;8.70;;;;;;;10.61;95.82;101300.63;5061529;28;20024;-69
2022/10/26 00:26:20;;;;;;;16.35;8.00;;;;;;;10.63;95.75;101299.81;5062257;28;20159;-69
2022/10/26 00:28:45;;;;;;;17.08;8.65;;;;;;;10.67;95.60;101306.88;5062486;28;20039;-69
2022/10/26 00:31:13;;;;;;;17.70;7.82;;;;;;;10.67;95.50;101307.75;5062314;28;20094;-68
2022/10/26 00:33:39;;;;;;;17.02;8.23;;;;;;;10.70;95.81;101296.53;5062888;28;20013;-69
2022/10/26 00:36:04;;;;;;;15.55;8.02;;;;;;;10.71;95.84;101285.28;5062531;28;20114;-68
2022/10/26 00:38:30;;;;;;;16.63;8.30;;;;;;;10.73;95.85;101278.38;5062297;28;20036;-69
2022/10/26 00:40:55;;;;;;;15.93;8.18;;;;;;;10.75;96.03;101275.00;5062439;28;20195;-69
2022/10/26 00:43:20;;;;;;;14.55;7.72;;;;;;;10.78;96.00;101272.47;5062403;28;20056;-68
2022/10/26 00:45:48;;;;;;;14.97;7.73;;;;;;;10.80;95.79;101293.38;5061412;28;20021;-69
2022/10/26 00:48:22;;;;;;;17.20;8.50;;;;;;;10.82;96.30;101302.16;5061353;28;20338;-69
2022/10/26 00:50:47;;;;;;;20.40;8.85;;;;;;;10.86;96.00;101300.50;5062555;28;20291;-69
2022/10/26 00:53:14;;;;;;;17.70;8.35;;;;;;;10.85;96.43;101289.19;5061020;28;20037;-69
2022/10/26 00:55:44;;;;;;;14.48;7.70;;;;;;;10.88;96.24;101299.72;5061143;28;20192;-69
2022/10/26 00:58:10;;;;;;;18.20;8.23;;;;;;;10.90;96.55;101297.16;5062227;28;20228;-76
2022/10/26 01:00:36;;;;;;;14.40;8.35;;;;;;;10.89;96.40;101296.28;5062288;28;20025;-76
2022/10/26 01:03:05;;;;;;;16.15;8.38;;;;;;;10.90;96.19;101292.81;5062221;28;20072;-76
2022/10/26 01:05:32;;;;;;;20.90;8.10;;;;;;;10.90;96.80;101292.81;5062254;28;20051;-76
2022/10/26 01:07:57;;;;;;;14.60;7.80;;;;;;;10.89;96.78;101288.44;5062236;28;20020;-76
2022/10/26 01:10:24;;;;;;;19.05;8.15;;;;;;;10.90;96.94;101278.91;5061283;28;20027;-76
2022/10/26 01:12:50;;;;;;;19.40;8.18;;;;;;;10.91;97.07;101278.94;5063829;28;20032;-76
2022/10/26 01:15:16;;;;;;;16.52;7.60;;;;;;;10.93;97.08;101271.16;5066014;28;20041;-76
2022/10/26 01:18:01;;;;;;;19.67;8.35;;;;;;;10.96;96.77;101266.03;5065942;28;20187;-76
2022/10/26 01:20:56;;;;;;;19.70;8.40;;;;;;;10.96;96.77;101274.75;5065914;28;20048;-76
2022/10/26 01:23:32;;;;;;;15.75;8.40;;;;;;;10.98;96.42;101273.91;5065805;28;20029;-76
2022/10/26 01:26:19;;;;;;;20.77;8.60;;;;;;;11.00;97.02;101262.69;5065748;28;20017;-76
2022/10/26 01:29:12;;;;;;;21.25;8.40;;;;;;;11.01;96.74;101259.25;5065788;28;20055;-69
2022/10/26 01:31:49;;;;;;;19.88;9.10;;;;;;;11.02;96.60;101249.69;5065967;28;20238;-69
2022/10/26 01:34:27;;;;;;;18.50;8.63;;;;;;;11.00;96.82;101251.38;5065531;28;20028;-69
2022/10/26 01:36:57;;;;;;;19.15;9.13;;;;;;;10.99;96.55;101252.22;5065643;28;20066;-69
2022/10/26 01:39:28;;;;;;;20.48;9.65;;;;;;;11.00;96.78;101251.38;5065397;28;20283;-69
2022/10/26 01:42:00;;;;;;;21.15;10.23;;;;;;;11.02;96.62;101260.13;5065643;28;20259;-69
2022/10/26 01:44:29;;;;;;;21.80;9.40;;;;;;;11.02;96.70;101250.59;5065365;28;20017;-69
2022/10/26 01:46:58;;;;;;;20.33;10.05;;;;;;;11.03;96.89;101246.25;5065583;28;20029;-69
2022/10/26 01:49:29;;;;;;;20.75;10.40;;;;;;;11.04;96.49;101245.41;5065277;28;20029;-69
2022/10/26 01:51:54;;;;;;;23.13;10.63;;;;;;;11.05;96.54;101239.34;5065419;28;20139;-69
2022/10/26 01:54:20;;;;;;;23.85;11.30;;;;;;;11.06;96.32;101241.09;5065133;28;20025;-69
2022/10/26 01:56:50;;;;;;;23.05;11.07;;;;;;;11.06;96.09;101241.09;5065390;28;20048;-77
2022/10/26 01:59:54;;;;;;;20.10;9.80;;;;;;;11.09;96.06;101233.38;5065029;28;20226;-76
2022/10/26 02:02:28;;;;;;;22.45;10.00;;;;;;;11.08;95.81;101235.09;5022999;28;20033;-76
2022/10/26 02:05:37;;;;;;;23.42;10.60;;;;;;;11.09;95.66;101233.38;5059590;28;20134;-76
2022/10/26 02:08:24;;;;;;;19.77;9.77;;;;;;;11.04;95.54;101225.41;5065067;28;20020;-76
2022/10/26 02:11:27;;;;;;;20.50;9.95;;;;;;;11.04;95.40;101227.16;5065005;28;20039;-77
2022/10/26 02:14:02;;;;;;;21.30;9.88;;;;;;;11.01;95.44;101225.34;5064923;28;20032;-76
2022/10/26 02:16:43;;;;;;;23.50;9.98;;;;;;;11.00;95.81;101218.34;5064982;28;20036;-76
2022/10/26 02:19:31;;;;;;;20.75;10.00;;;;;;;11.01;95.45;101219.22;5064700;28;20032;-76
2022/10/26 02:22:03;;;;;;;24.45;9.38;;;;;;;10.99;95.79;101218.31;5064770;28;20263;-76
2022/10/26 02:24:32;;;;;;;21.10;9.20;;;;;;;10.95;95.66;101213.00;5080168;28;20168;-76
2022/10/26 02:27:00;;;;;;;18.50;9.57;;;;;;;10.95;95.61;101219.97;5065118;28;20045;-76
2022/10/26 02:29:27;;;;;;;21.60;9.40;;;;;;;10.96;95.52;101216.50;5079880;28;20032;-75
2022/10/26 02:31:54;;;;;;;21.65;9.38;;;;;;;10.95;95.98;101213.00;5064593;28;20087;-76
2022/10/26 02:34:25;;;;;;;21.00;9.32;;;;;;;10.96;95.94;101213.88;5064582;28;20037;-76
2022/10/26 02:36:53;;;;;;;18.10;9.43;;;;;;;10.96;95.82;101221.72;5063300;28;20028;-76
2022/10/26 02:39:20;;;;;;;20.30;9.10;;;;;;;10.97;95.92;101210.44;5064324;28;20021;-76
2022/10/26 02:41:47;;;;;;;20.98;9.43;;;;;;;10.95;96.08;101207.78;5063021;28;20016;-76
2022/10/26 02:44:29;;;;;;;20.48;9.07;;;;;;;10.95;96.30;101205.19;5064171;28;20029;-77
2022/10/26 02:46:55;;;;;;;21.33;8.38;;;;;;;10.93;95.98;101201.66;5064186;28;20029;-76
2022/10/26 02:49:21;;;;;;;18.42;7.90;;;;;;;10.93;95.97;101204.28;5063923;28;20033;-76
2022/10/26 02:51:58;;;;;;;17.15;7.85;;;;;;;10.95;96.51;101202.59;5064088;28;20074;-76
2022/10/26 02:54:47;;;;;;;23.27;8.52;;;;;;;10.93;96.17;101204.28;5064094;28;20044;-77
2022/10/26 02:57:28;;;;;;;18.33;8.18;;;;;;;10.94;96.30;101200.81;5064264;28;20133;-76
2022/10/26 02:59:55;;;;;;;19.38;8.40;;;;;;;10.96;95.87;101199.16;5064112;28;20052;-76
2022/10/26 03:02:21;;;;;;;18.42;8.27;;;;;;;10.96;95.88;101209.56;5063892;28;20087;-76
2022/10/26 03:04:49;;;;;;;16.42;7.43;;;;;;;10.95;96.00;101196.50;5063976;28;20028;-76
2022/10/26 03:07:20;;;;;;;17.85;7.95;;;;;;;10.95;95.83;101204.31;5063854;28;20084;-76
2022/10/26 03:09:46;;;;;;;17.40;7.80;;;;;;;10.94;96.09;101195.59;5063851;28;20037;-76
2022/10/26 03:12:11;;;;;;;15.15;7.43;;;;;;;10.93;96.25;101191.25;5063768;28;20071;-77
2022/10/26 03:14:36;;;;;;;17.23;7.65;;;;;;;10.93;96.39;101186.03;5063875;28;20032;-76
2022/10/26 03:17:01;;;;;;;17.58;7.38;;;;;;;10.94;96.30;101192.13;5063622;28;20021;-77
2022/10/26 03:19:27;;;;;;;16.55;6.70;;;;;;;10.93;96.57;101191.25;5063637;28;20233;-77
2022/10/26 03:21:52;;;;;;;18.48;7.75;;;;;;;10.92;96.44;101189.47;5063662;28;20283;-77
2022/10/26 03:24:17;;;;;;;18.10;6.88;;;;;;;10.93;96.72;101191.25;5063495;28;20032;-76
2022/10/26 03:26:43;;;;;;;13.73;7.55;;;;;;;10.94;96.53;101195.59;5063454;28;20028;-69
2022/10/26 03:29:08;;;;;;;18.50;7.28;;;;;;;10.95;96.73;101188.69;5063299;28;20032;-69
2022/10/26 03:31:33;;;;;;;22.08;7.20;;;;;;;10.96;96.95;101193.03;5063408;28;20234;-69
2022/10/26 03:33:59;;;;;;;14.13;6.72;;;;;;;10.96;97.07;101193.94;5063370;28;20164;-69
2022/10/26 03:36:24;;;;;;;17.85;6.70;;;;;;;10.97;97.16;101189.59;5062884;28;20029;-69
2022/10/26 03:38:49;;;;;;;15.55;7.07;;;;;;;10.96;97.61;101188.72;5063384;28;20021;-68
2022/10/26 03:41:15;;;;;;;13.95;6.82;;;;;;;10.95;97.19;101186.94;5063133;28;20048;-68
2022/10/26 03:43:40;;;;;;;13.23;6.43;;;;;;;10.98;97.21;101180.03;5063213;28;20021;-68
2022/10/26 03:46:05;;;;;;;16.42;6.47;;;;;;;10.98;97.28;101180.94;5063199;28;20227;-69
2022/10/26 03:48:31;;;;;;;14.52;6.60;;;;;;;10.98;96.93;101180.03;5062926;28;20039;-69
2022/10/26 03:50:57;;;;;;;16.55;6.00;;;;;;;11.00;96.92;101183.59;5063125;28;20025;-69
2022/10/26 03:53:23;;;;;;;17.77;6.60;;;;;;;10.98;96.60;101186.16;5062874;28;20078;-69
2022/10/26 03:55:48;;;;;;;15.27;6.75;;;;;;;10.96;96.82;101177.38;5063368;28;20462;-68
2022/10/26 03:58:13;;;;;;;12.90;5.97;;;;;;;10.92;96.83;101179.03;5062935;28;20165;-69
2022/10/26 04:00:39;;;;;;;13.05;5.93;;;;;;;10.92;97.08;101173.81;5063043;28;20067;-69
2022/10/26 04:03:04;;;;;;;14.77;6.53;;;;;;;10.92;97.35;101173.81;5062634;28;20228;-69
2022/10/26 04:05:29;;;;;;;15.57;6.47;;;;;;;10.91;97.56;101182.47;5062722;28;20172;-68
2022/10/26 04:07:57;;;;;;;12.30;5.70;;;;;;;10.90;97.10;101175.47;5062790;28;20029;-76
2022/10/26 04:10:24;;;;;;;11.82;6.18;;;;;;;10.89;97.05;101183.25;5062586;28;20056;-76
2022/10/26 04:12:49;;;;;;;11.07;5.82;;;;;;;10.87;97.43;101180.63;5061512;28;20209;-76
2022/10/26 04:15:16;;;;;;;13.55;5.90;;;;;;;10.86;97.82;101181.47;5062569;28;20032;-76
2022/10/26 04:17:41;;;;;;;12.57;6.18;;;;;;;10.85;97.89;101179.72;5062762;28;20032;-76
2022/10/26 04:20:07;;;;;;;18.48;5.80;;;;;;;10.87;97.99;101180.63;5062582;28;20025;-77
2022/10/26 04:22:33;;;;;;;15.00;6.20;;;;;;;10.90;98.23;101185.91;5062694;28;20021;-77
2022/10/26 04:24:58;;;;;;;14.63;6.07;;;;;;;10.92;98.50;101178.13;5062606;28;20032;-77
2022/10/26 04:27:23;;;;;;;11.68;5.38;;;;;;;10.94;98.14;101185.16;5062473;28;20263;-76
2022/10/26 04:29:49;;;;;;;14.38;6.10;;;;;;;10.96;97.92;101180.88;5062443;28;20037;-76
2022/10/26 04:32:14;;;;;;;14.55;6.13;;;;;;;11.00;97.97;101178.38;5061671;28;20021;-77
2022/10/26 04:34:39;;;;;;;15.38;5.93;;;;;;;11.00;98.36;101176.63;5061048;28;20301;-76
2022/10/26 04:37:04;;;;;;;14.73;6.20;;;;;;;11.03;98.09;101173.22;5061912;28;20255;-76
2022/10/26 04:39:30;;;;;;;14.98;5.80;;;;;;;11.07;97.90;101180.31;5061450;28;20097;-76
2022/10/26 04:41:55;;;;;;;14.93;5.95;;;;;;;11.05;97.84;101167.22;5061498;28;20044;-76
2022/10/26 04:44:20;;;;;;;12.32;5.43;;;;;;;11.06;97.71;101170.69;5059933;28;20012;-76
2022/10/26 04:46:45;;;;;;;17.48;5.80;;;;;;;11.08;97.91;101167.28;5061314;28;20025;-76
2022/10/26 04:49:11;;;;;;;14.13;5.75;;;;;;;11.09;97.68;101165.56;5064591;28;20089;-76
2022/10/26 04:51:36;;;;;;;11.10;5.60;;;;;;;11.09;98.02;101168.16;5065315;28;20223;-76
2022/10/26 04:54:02;;;;;;;13.63;5.57;;;;;;;11.10;98.29;101173.41;5065116;28;20025;-76
2022/10/26 04:56:28;;;;;;;12.07;5.53;;;;;;;11.10;98.55;101180.38;5063846;28;20084;-76
2022/10/26 04:58:53;;;;;;;11.98;5.93;;;;;;;11.09;98.42;101176.91;5064982;28;20025;-76
2022/10/26 05:01:19;;;;;;;14.40;6.25;;;;;;;11.11;98.82;101176.94;5064746;28;20272;-76
2022/10/26 05:03:48;;;;;;;15.27;5.93;;;;;;;11.11;98.78;101182.16;5064933;28;20032;-77
2022/10/26 05:06:13;;;;;;;16.20;6.28;;;;;;;11.12;99.00;101183.91;5065042;28;20082;-68
2022/10/26 05:08:39;;;;;;;15.70;6.57;;;;;;;11.12;99.27;101184.81;5064936;28;20033;-68
2022/10/26 05:11:04;;;;;;;14.55;6.00;;;;;;;11.12;98.93;101179.59;5064631;28;20092;-68
2022/10/26 05:13:29;;;;;;;17.08;6.40;;;;;;;11.14;99.05;101174.41;5064731;28;20029;-69
2022/10/26 05:15:55;;;;;;;17.45;6.05;;;;;;;11.16;98.88;101182.25;5064534;28;20017;-68
2022/10/26 05:18:20;;;;;;;17.13;5.82;;;;;;;11.18;98.94;101184.09;5064688;28;20025;-69
2022/10/26 05:20:45;;;;;;;14.63;6.28;;;;;;;11.19;98.92;101188.44;5064655;28;20036;-69
2022/10/26 05:23:11;;;;;;;14.10;6.35;;;;;;;11.21;99.00;101184.16;5064710;28;20024;-69
2022/10/26 05:25:37;;;;;;;13.60;6.50;;;;;;;11.22;99.13;101178.06;5064705;28;20271;-69
2022/10/26 05:28:06;;;;;;;17.17;6.13;;;;;;;11.22;99.61;101183.28;5064578;28;20172;-68
2022/10/26 05:30:32;;;;;;;17.08;6.47;;;;;;;11.24;99.35;101185.94;5024051;28;1168505;-69
2022/10/26 05:32:59;;;;;;;15.48;5.68;;;;;;;11.24;99.04;101184.22;5065983;28;20268;-69
2022/10/26 05:35:25;;;;;;;15.10;6.28;;;;;;;11.25;99.43;101187.72;5065741;28;20175;-68
2022/10/26 05:37:51;;;;;;;17.38;6.07;;;;;;;11.27;99.05;101188.66;5065763;28;20029;-76
2022/10/26 05:40:17;;;;;;;16.88;6.13;;;;;;;11.27;99.39;101183.44;5065475;28;20051;-76
2022/10/26 05:42:43;;;;;;;16.15;6.28;;;;;;;11.29;98.97;101187.81;5065317;28;20085;-76
2022/10/26 05:45:09;;;;;;;16.60;6.65;;;;;;;11.30;98.90;101188.72;5065483;28;20033;-76
2022/10/26 05:47:42;;;;;;;16.17;6.35;;;;;;;11.28;99.38;101196.53;5065620;28;20020;-76
2022/10/26 05:50:08;;;;;;;16.20;6.40;;;;;;;11.28;99.55;101186.09;5065216;28;20124;-76
2022/10/26 05:52:43;;;;;;;12.07;6.03;;;;;;;11.29;99.27;101187.81;5065252;28;20045;-76
2022/10/26 05:55:11;;;;;;;13.25;6.00;;;;;;;11.28;99.52;101188.69;5065652;28;20084;-76
2022/10/26 05:57:37;;;;;;;17.65;5.97;;;;;;;11.29;99.65;101193.03;5065043;28;20021;-76
2022/10/26 06:00:06;;;;;;;19.20;7.35;;;;;;;11.29;99.84;101198.25;5064724;28;20058;-76
2022/10/26 06:02:37;;;;;;;;;;;;;;;11.36;98.55;101204.53;5065486;28;20025;-76
2022/10/26 06:05:04;;;;;;;15.00;5.78;;;;;;;11.31;99.43;101203.53;5065226;28;19904;-76
2022/10/26 06:07:29;;;;;;;16.45;6.47;;;;;;;11.33;99.64;101200.97;5065048;28;20275;-69
2022/10/26 06:09:55;;;;;;;17.08;6.35;;;;;;;11.32;99.48;101215.72;5064808;28;20059;-69
2022/10/26 06:12:20;;;;;;;17.67;6.45;;;;;;;11.33;99.68;101214.91;5064767;28;20037;-69
2022/10/26 06:14:46;;;;;;;17.65;6.47;;;;;;;11.34;100.00;101213.16;5064792;28;20291;-68
2022/10/26 06:17:22;;;;;;;16.08;5.70;;;;;;;11.37;99.50;101221.06;5064735;28;20021;-68
2022/10/26 06:19:57;;;;;;;15.10;5.80;;;;;;;11.38;99.52;101222.84;5064902;28;20029;-68
2022/10/26 06:22:45;;;;;;;15.85;6.65;;;;;;;11.38;99.49;101217.63;5064636;28;20083;-69
2022/10/26 06:25:15;;;;;;;16.27;6.32;;;;;;;11.36;99.11;101214.09;5058906;28;20090;-68
2022/10/26 06:28:03;;;;;;;18.92;6.28;;;;;;;11.36;99.51;101219.31;5064851;28;20025;-69
2022/10/26 06:30:29;;;;;;;14.27;6.43;;;;;;;11.33;99.24;101214.03;5064363;28;20048;-68
2022/10/26 06:32:55;;;;;;;17.48;6.75;;;;;;;11.31;99.16;101211.34;5064568;28;20048;-69
2022/10/26 06:35:32;;;;;;;17.27;6.63;;;;;;;11.29;99.05;101216.53;5064299;28;20028;-69
2022/10/26 06:38:01;;;;;;;19.13;6.45;;;;;;;11.28;98.85;101213.88;5064546;28;20092;-68
2022/10/26 06:40:31;;;;;;;18.88;7.22;;;;;;;11.27;98.46;101220.84;5064572;28;20267;-68
2022/10/26 06:42:58;;;;;;;20.15;6.80;;;;;;;11.26;98.82;101211.22;5064274;28;20214;-68
2022/10/26 06:45:23;;;;;;;14.20;6.65;;;;;;;11.24;98.78;101204.19;5064516;28;20082;-68
2022/10/26 06:48:13;;;;;;;13.40;6.20;;;;;;;11.26;99.11;101208.63;5064286;28;20060;-68
2022/10/26 06:50:51;;;;;;;15.35;6.60;;;;;;;11.27;98.82;101199.97;5064213;28;20041;-68
2022/10/26 06:53:32;;;;;;;19.47;6.30;;;;;;;11.28;98.92;101201.75;5064173;28;20024;-68
2022/10/26 06:55:58;;;;;;;16.75;6.78;;;;;;;11.29;98.88;101203.47;5064194;28;20053;-68
2022/10/26 06:58:28;;;;;;;18.75;6.82;;;;;;;11.29;99.00;101203.47;5064158;28;20029;-68
2022/10/26 07:00:54;;;;;;;;;;;;;;;11.39;98.36;101208.97;5064501;28;20262;-68
2022/10/26 07:03:19;;;;;;;18.08;6.53;;;;;;;11.34;99.29;101211.47;5062841;28;19964;-68
2022/10/26 07:05:45;;;;;;;15.55;7.30;;;;;;;11.34;98.87;101206.25;5063871;28;20020;-68
2022/10/26 07:08:11;;;;;;;15.55;7.10;;;;;;;11.36;99.08;101201.94;5063813;28;20056;-68
2022/10/26 07:10:37;;;;;;;17.73;6.70;;;;;;;11.37;98.98;101208.91;5078436;28;20072;-68
2022/10/26 07:13:04;;;;;;;13.93;6.80;;;;;;;11.39;99.15;101222.00;5063851;28;20025;-68
2022/10/26 07:15:29;;;;;;;15.40;6.32;;;;;;;11.38;98.71;101226.31;5063693;28;20115;-68
2022/10/26 07:17:54;;;;;;;15.95;6.22;;;;;;;11.36;98.98;101228.03;5063900;28;20025;-76
2022/10/26 07:20:20;;;;;;;13.48;6.75;;;;;;;11.37;99.26;101231.50;5063692;28;20299;-76
2022/10/26 07:22:53;;;;;;;16.27;6.38;;;;;;;11.35;99.06;101227.97;5063692;28;20089;-76
2022/10/26 07:25:19;;;;;;;14.40;6.60;;;;;;;11.36;99.16;101233.25;5063614;28;20059;-76
2022/10/26 07:27:44;;;;;;;15.75;6.88;;;;;;;11.36;99.15;101235.84;5063538;28;20040;-76
2022/10/26 07:30:10;;;;;;;15.40;6.78;;;;;;;11.37;99.02;101245.44;5063219;28;20242;-76
2022/10/26 07:32:35;;;;;;;20.45;7.20;;;;;;;11.37;99.42;101248.06;5063486;28;20138;-78
2022/10/26 07:35:00;;;;;;;21.25;7.72;;;;;;;11.38;99.75;101249.81;5063252;28;20067;-78
2022/10/26 07:37:26;;;;;;;17.23;7.07;;;;;;;11.38;99.19;101248.94;5063305;28;20066;-76
2022/10/26 07:39:51;;;;;;;20.45;7.40;;;;;;;11.39;99.75;101248.09;5063162;28;20032;-76
2022/10/26 07:42:17;;;;;;;16.15;7.45;;;;;;;11.41;100.00;101247.31;5063166;28;20032;-76
2022/10/26 07:44:42;;;;;;;18.63;7.55;;;;;;;11.42;99.99;101250.78;5063132;28;20052;-75
2022/10/26 07:47:07;;;;;;;18.63;8.00;;;;;;;11.43;100.00;101255.16;5063129;28;20092;-68
2022/10/26 07:49:33;;;;;;;17.70;7.68;;;;;;;11.44;100.00;101265.66;5063077;28;20185;-68
2022/10/26 07:51:58;;;;;;;21.73;8.63;;;;;;;11.54;100.00;101274.56;5063139;28;20020;-68
2022/10/26 07:54:23;;;;;;;19.40;8.18;;;;;;;11.64;100.00;101287.06;5062736;28;20123;-68
2022/10/26 07:56:49;;;;;;;22.80;8.90;;;;;;;11.78;100.00;101286.53;5062840;28;20052;-68
2022/10/26 07:59:15;;;;;;;18.88;7.18;;;;;;;11.93;100.00;101281.69;5062712;28;20294;-68
2022/10/26 08:01:41;;;;;;;17.30;6.97;;;;;;;12.06;100.00;101279.41;5062929;28;20036;-68
2022/10/26 08:04:06;;;;;;;15.23;6.75;;;;;;;12.21;100.00;101282.41;5061441;28;20024;-68
2022/10/26 08:06:31;;;;;;;16.02;7.18;;;;;;;12.34;99.60;101288.81;5063114;28;20167;-68
2022/10/26 08:08:57;;;;;;;16.52;7.47;;;;;;;12.44;98.96;101298.63;5062804;28;20029;-68
2022/10/26 08:11:22;;;;;;;16.02;6.05;;;;;;;12.53;98.71;101297.94;5062624;28;20264;-68
2022/10/26 08:13:52;;;;;;;16.23;6.47;;;;;;;12.62;98.35;101295.53;5062740;28;20032;-68
2022/10/26 08:16:17;;;;;;;14.68;6.20;;;;;;;12.73;98.29;101290.56;5062486;28;20017;-75
2022/10/26 08:18:42;;;;;;;14.70;6.18;;;;;;;12.86;97.91;101289.97;5062818;28;20021;-75
2022/10/26 08:21:10;;;;;;;19.10;6.63;;;;;;;12.98;98.25;101289.34;5062434;28;20021;-75
2022/10/26 08:23:36;;;;;;;15.70;5.93;;;;;;;13.10;97.24;101288.69;5061341;28;20110;-75
2022/10/26 08:26:02;;;;;;;13.25;5.63;;;;;;;13.20;96.74;101287.16;5062377;28;20257;-75
2022/10/26 08:28:28;;;;;;;16.85;6.50;;;;;;;13.28;96.11;101296.06;5062416;28;20178;-75
2022/10/26 08:30:54;;;;;;;13.98;6.40;;;;;;;13.36;96.34;101298.84;5061137;28;20075;-75
2022/10/26 08:33:19;;;;;;;10.98;5.55;;;;;;;13.44;96.33;101299.88;5062474;28;20017;-75
2022/10/26 08:35:45;;;;;;;16.73;6.43;;;;;;;13.49;96.21;101300.84;5062453;28;20310;-75
2022/10/26 08:38:10;;;;;;;14.07;6.25;;;;;;;13.55;96.24;101303.56;5062336;28;20049;-75
2022/10/26 08:40:38;;;;;;;14.85;6.90;;;;;;;13.63;95.81;101306.34;5062227;28;20040;-76
2022/10/26 08:43:18;;;;;;;16.67;6.75;;;;;;;13.68;95.93;101304.66;5062359;28;20055;-75
2022/10/26 08:45:49;;;;;;;21.30;6.93;;;;;;;13.74;96.04;101310.03;5062395;28;20021;-75
2022/10/26 08:48:20;;;;;;;17.73;6.85;;;;;;;13.80;95.80;101313.63;5062297;28;20055;-75
2022/10/26 08:51:00;;;;;;;15.88;7.00;;;;;;;13.84;95.91;101318.06;5062220;28;20083;-75
2022/10/26 08:53:30;;;;;;;12.55;6.22;;;;;;;13.92;95.74;101308.59;5062362;28;20079;-75
2022/10/26 08:56:02;;;;;;;14.43;6.80;;;;;;;14.01;95.58;101303.50;5062487;28;20169;-75
2022/10/26 08:58:35;;;;;;;14.70;6.80;;;;;;;14.14;95.82;101290.63;5062233;28;20044;-75
2022/10/26 09:01:02;;;;;;;14.43;6.47;;;;;;;14.21;95.02;101285.50;5062264;28;20079;-75
2022/10/26 09:03:27;;;;;;;14.63;7.18;;;;;;;14.26;94.88;101282.94;5062120;28;20027;-75
2022/10/26 09:06:14;;;;;;;19.05;6.43;;;;;;;14.32;94.63;101277.78;5062366;28;20048;-75
2022/10/26 09:08:53;;;;;;;15.48;6.38;;;;;;;14.40;94.58;101280.53;5061027;28;20302;-75
2022/10/26 09:11:51;;;;;;;14.60;6.03;;;;;;;14.49;94.84;101306.88;5062659;28;20025;-75
2022/10/26 09:14:38;;;;;;;12.57;5.80;;;;;;;14.60;94.10;101299.19;5062115;28;20017;-75
2022/10/26 09:17:22;;;;;;;13.68;6.28;;;;;;;14.69;93.89;101328.19;5062082;28;20326;-74
2022/10/26 09:20:16;;;;;;;14.52;6.00;;;;;;;14.78;93.85;101319.56;5062173;28;20025;-76
2022/10/26 09:23:17;;;;;;;18.95;6.40;;;;;;;14.88;93.54;101325.84;5062244;28;20035;-76
2022/10/26 09:25:50;;;;;;;14.23;5.53;;;;;;;14.95;93.04;101332.94;5045976;28;20041;-76
2022/10/26 09:28:17;;;;;;;14.75;5.75;;;;;;;15.02;92.91;101345.28;5061831;28;20168;-75
2022/10/26 09:30:45;;;;;;;14.45;5.88;;;;;;;15.10;92.59;101347.97;5061738;28;20045;-75
2022/10/26 09:33:17;;;;;;;12.77;5.70;;;;;;;15.17;92.01;101346.31;5062408;28;20314;-75
2022/10/26 09:35:48;;;;;;;12.93;6.03;;;;;;;15.25;92.61;101352.53;5065802;28;20036;-76
2022/10/26 09:38:51;;;;;;;13.10;6.10;;;;;;;15.35;92.12;101364.94;5065509;28;20287;-75
2022/10/26 09:41:26;;;;;;;12.68;5.88;;;;;;;15.46;90.51;101372.94;5065599;28;20255;-75
2022/10/26 09:44:09;;;;;;;13.02;6.20;;;;;;;15.55;90.61;101372.16;5065556;28;20052;-75
2022/10/26 09:47:14;;;;;;;14.10;6.57;;;;;;;15.59;89.95;101373.97;5064232;28;20016;-75
2022/10/26 09:49:47;;;;;;;16.83;6.32;;;;;;;15.63;89.86;101366.13;5065446;28;20047;-75
2022/10/26 09:52:13;;;;;;;19.30;6.40;;;;;;;15.64;89.27;101367.00;5065414;28;20291;-76
2022/10/26 09:54:39;;;;;;;14.10;6.05;;;;;;;15.68;89.05;101368.81;5065421;28;20029;-76
2022/10/26 09:57:06;;;;;;;15.25;6.43;;;;;;;15.71;89.12;101367.97;5065241;28;20055;-75
2022/10/26 09:59:36;;;;;;;12.43;5.68;;;;;;;15.74;88.88;101371.53;5065262;28;20029;-75
2022/10/26 10:02:31;;;;;;;14.88;6.05;;;;;;;15.77;89.99;101368.91;5065324;28;20021;-76
2022/10/26 10:04:56;;;;;;;12.88;5.85;;;;;;;15.81;89.09;101383.00;5065107;28;20035;-75
2022/10/26 10:07:21;;;;;;;20.05;6.65;;;;;;;15.88;89.11;101391.84;5065090;28;20048;-74
2022/10/26 10:10:06;;;;;;;13.75;6.43;;;;;;;15.93;88.96;101395.38;5065037;28;20040;-75
2022/10/26 10:12:31;;;;;;;12.15;5.78;;;;;;;15.96;88.45;101391.03;5065049;28;20055;-75
2022/10/26 10:14:58;;;;;;;16.55;6.30;;;;;;;16.04;88.79;101393.75;5064994;28;20033;-75
2022/10/26 10:17:24;;;;;;;14.80;6.30;;;;;;;16.12;88.74;101402.59;5064794;28;20025;-76
2022/10/26 10:19:50;;;;;;;13.93;5.95;;;;;;;16.25;89.24;101413.22;5065366;28;20044;-75
2022/10/26 10:22:19;;;;;;;15.55;6.45;;;;;;;16.39;88.57;101421.22;5064799;28;20106;-75
2022/10/26 10:24:57;;;;;;;11.48;5.45;;;;;;;16.49;87.74;101423.94;5064803;28;20052;-74
2022/10/26 10:27:23;;;;;;;19.38;6.60;;;;;;;16.60;87.35;101434.56;5064613;28;20196;-75
2022/10/26 10:29:51;;;;;;;15.48;6.57;;;;;;;16.68;86.85;101430.25;5064391;28;20040;-75
2022/10/26 10:32:30;;;;;;;16.05;6.20;;;;;;;16.77;86.22;101432.09;5064483;28;20244;-75
2022/10/26 10:34:57;;;;;;;16.13;6.20;;;;;;;16.83;85.92;101432.13;5064425;28;20040;-75
2022/10/26 10:37:38;;;;;;;13.93;5.90;;;;;;;16.94;85.82;101452.41;5064508;28;20040;-75
2022/10/26 10:40:07;;;;;;;15.57;6.05;;;;;;;17.04;85.49;101446.31;5064540;28;20266;-75
2022/10/26 10:42:37;;;;;;;19.55;6.25;;;;;;;17.13;84.40;101448.13;5064446;28;20090;-75
2022/10/26 10:45:05;;;;;;;19.33;6.07;;;;;;;17.23;85.22;101454.34;5063210;28;20033;-75
2022/10/26 10:47:32;;;;;;;15.95;6.25;;;;;;;17.31;84.40;101464.06;5064322;28;20048;-75
2022/10/26 10:50:06;;;;;;;14.57;6.18;;;;;;;17.35;84.55;101459.66;5064348;28;20036;-75
2022/10/26 10:52:34;;;;;;;20.70;6.38;;;;;;;17.41;83.85;101462.34;5064183;28;20290;-74
2022/10/26 10:55:17;;;;;;;15.75;6.80;;;;;;;17.45;84.03;101461.50;5063063;28;20025;-74
2022/10/26 10:58:06;;;;;;;15.48;6.43;;;;;;;17.50;83.17;101462.38;5064157;28;20068;-75
2022/10/26 11:00:36;;;;;;;15.82;6.30;;;;;;;17.58;83.17;101472.09;5064261;28;20029;-75
2022/10/26 11:03:35;;;;;;;13.77;6.32;;;;;;;17.63;83.43;101473.00;5064143;28;20033;-75
2022/10/26 11:06:12;;;;;;;11.75;6.05;;;;;;;17.62;83.10;101480.00;5062873;28;20179;-75
2022/10/26 11:08:54;;;;;;;12.05;5.68;;;;;;;17.60;83.25;101486.13;5063848;28;20013;-75
2022/10/26 11:11:30;;;;;;;14.60;6.18;;;;;;;17.58;83.33;101487.91;5063792;28;20256;-75
2022/10/26 11:14:11;;;;;;;16.55;5.63;;;;;;;17.60;83.54;101497.56;5063884;28;20076;-75
2022/10/26 11:16:42;;;;;;;14.70;6.13;;;;;;;17.67;83.85;101487.94;5063864;28;20063;-76
2022/10/26 11:19:40;;;;;;;14.98;6.55;;;;;;;17.71;84.87;101494.97;5063625;28;20037;-76
2022/10/26 11:22:13;;;;;;;11.50;6.20;;;;;;;17.75;84.10;101494.13;5063707;28;20029;-75
2022/10/26 11:24:59;;;;;;;12.60;6.10;;;;;;;17.79;84.25;101503.81;5079204;28;20268;-76
2022/10/26 11:27:24;;;;;;;11.43;6.13;;;;;;;17.79;82.58;101508.22;5063575;28;20013;-68
2022/10/26 11:30:01;;;;;;;10.70;6.63;;;;;;;17.76;82.95;101514.34;5063286;28;20163;-68
2022/10/26 11:32:33;;;;;;;12.70;6.80;;;;;;;17.74;82.54;101500.25;5063312;28;20260;-68